Terminal Aerodrome Forecast
Issued by NWS Shreveport, LA

Home | Current Version | Previous Version | Text Only | Print | Product List | Glossary On
Versions: 1 2 3 4 5 6 7 8 9 10 11 12 13 14 15
000
FTUS44 KSHV 270536
TAFTYR
TAF
KTYR 270536Z 2706/2806 17005KT P6SM FEW060
      TEMPO 2711/2713 SCT015 SCT050
     FM271300 21007KT P6SM SCT020 SCT050 SCT250
      TEMPO 2716/2718 BKN040
     FM271800 VRB06KT P6SM VCTS SCT045CB BKN250
     FM280000 VRB06KT P6SM VCTS SCT050CB BKN140 BKN250=

USA.gov is the U.S. government's official web portal to all federal, state and local government web resources and services.